sensor_id;sensor_type;location;lat;lon;timestamp;temperature;humidity
5560;DHT22;2803;47.916;8.074;2023-07-16T00:01:39;21.60;99.90
5560;DHT22;2803;47.916;8.074;2023-07-16T00:04:06;21.40;99.90
5560;DHT22;2803;47.916;8.074;2023-07-16T00:06:33;20.70;99.90
5560;DHT22;2803;47.916;8.074;2023-07-16T00:09:00;20.50;99.90
5560;DHT22;2803;47.916;8.074;2023-07-16T00:11:27;20.40;99.90
5560;DHT22;2803;47.916;8.074;2023-07-16T00:13:54;20.40;99.90
5560;DHT22;2803;47.916;8.074;2023-07-16T00:16:21;20.80;99.90
5560;DHT22;2803;47.916;8.074;2023-07-16T00:18:48;21.10;99.90
5560;DHT22;2803;47.916;8.074;2023-07-16T00:21:14;21.00;99.90
5560;DHT22;2803;47.916;8.074;2023-07-16T00:23:41;21.10;99.90
5560;DHT22;2803;47.916;8.074;2023-07-16T00:26:09;21.20;99.90
5560;DHT22;2803;47.916;8.074;2023-07-16T00:28:36;21.30;99.90
5560;DHT22;2803;47.916;8.074;2023-07-16T00:31:03;21.00;99.90
5560;DHT22;2803;47.916;8.074;2023-07-16T00:33:29;21.20;99.90
5560;DHT22;2803;47.916;8.074;2023-07-16T00:35:56;21.20;99.90
5560;DHT22;2803;47.916;8.074;2023-07-16T00:38:22;20.90;99.90
5560;DHT22;2803;47.916;8.074;2023-07-16T00:40:49;20.80;99.90
5560;DHT22;2803;47.916;8.074;2023-07-16T00:43:20;20.90;99.90
5560;DHT22;2803;47.916;8.074;2023-07-16T00:45:47;21.10;99.90
5560;DHT22;2803;47.916;8.074;2023-07-16T00:48:13;20.90;99.90
5560;DHT22;2803;47.916;8.074;2023-07-16T00:50:41;20.60;99.90
5560;DHT22;2803;47.916;8.074;2023-07-16T00:53:08;20.50;99.90
5560;DHT22;2803;47.916;8.074;2023-07-16T00:55:36;19.70;99.90
5560;DHT22;2803;47.916;8.074;2023-07-16T00:58:04;20.10;99.90
5560;DHT22;2803;47.916;8.074;2023-07-16T01:00:33;20.00;99.90
5560;DHT22;2803;47.916;8.074;2023-07-16T01:03:00;20.20;99.90
5560;DHT22;2803;47.916;8.074;2023-07-16T01:05:31;20.30;99.90
5560;DHT22;2803;47.916;8.074;2023-07-16T01:08:05;20.40;99.90
5560;DHT22;2803;47.916;8.074;2023-07-16T01:10:33;20.10;99.90
5560;DHT22;2803;47.916;8.074;2023-07-16T01:13:00;19.90;99.90
5560;DHT22;2803;47.916;8.074;2023-07-16T01:15:27;19.90;99.90
5560;DHT22;2803;47.916;8.074;2023-07-16T01:17:55;19.90;99.90
5560;DHT22;2803;47.916;8.074;2023-07-16T01:20:22;20.20;99.90
5560;DHT22;2803;47.916;8.074;2023-07-16T01:23:01;20.20;99.90
5560;DHT22;2803;47.916;8.074;2023-07-16T01:25:53;20.20;99.90
5560;DHT22;2803;47.916;8.074;2023-07-16T01:28:39;20.20;99.90
5560;DHT22;2803;47.916;8.074;2023-07-16T01:31:11;20.20;99.90
5560;DHT22;2803;47.916;8.074;2023-07-16T01:33:38;19.70;99.90
5560;DHT22;2803;47.916;8.074;2023-07-16T01:36:07;19.60;99.90
5560;DHT22;2803;47.916;8.074;2023-07-16T01:38:34;19.80;99.90
5560;DHT22;2803;47.916;8.074;2023-07-16T01:41:01;19.60;99.90
5560;DHT22;2803;47.916;8.074;2023-07-16T01:43:28;19.50;99.90
5560;DHT22;2803;47.916;8.074;2023-07-16T01:45:55;19.50;99.90
5560;DHT22;2803;47.916;8.074;2023-07-16T01:48:29;19.10;99.90
5560;DHT22;2803;47.916;8.074;2023-07-16T01:50:56;18.60;99.90
5560;DHT22;2803;47.916;8.074;2023-07-16T01:53:23;18.60;99.90
5560;DHT22;2803;47.916;8.074;2023-07-16T01:55:50;18.70;99.90
5560;DHT22;2803;47.916;8.074;2023-07-16T01:58:16;18.40;99.90
5560;DHT22;2803;47.916;8.074;2023-07-16T02:00:43;18.60;99.90
5560;DHT22;2803;47.916;8.074;2023-07-16T02:03:11;18.70;99.90
5560;DHT22;2803;47.916;8.074;2023-07-16T02:05:40;17.80;99.90
5560;DHT22;2803;47.916;8.074;2023-07-16T02:08:06;17.60;99.90
5560;DHT22;2803;47.916;8.074;2023-07-16T02:10:33;17.90;99.90
5560;DHT22;2803;47.916;8.074;2023-07-16T02:13:00;17.90;99.90
5560;DHT22;2803;47.916;8.074;2023-07-16T02:15:26;18.40;99.90
5560;DHT22;2803;47.916;8.074;2023-07-16T02:17:53;18.30;99.90
5560;DHT22;2803;47.916;8.074;2023-07-16T02:20:20;18.70;99.90
5560;DHT22;2803;47.916;8.074;2023-07-16T02:22:48;18.70;99.90
5560;DHT22;2803;47.916;8.074;2023-07-16T02:25:14;18.80;99.90
5560;DHT22;2803;47.916;8.074;2023-07-16T02:27:41;18.70;99.90
5560;DHT22;2803;47.916;8.074;2023-07-16T02:30:08;18.60;99.90
5560;DHT22;2803;47.916;8.074;2023-07-16T02:32:35;18.30;99.90
5560;DHT22;2803;47.916;8.074;2023-07-16T02:35:02;18.50;99.90
5560;DHT22;2803;47.916;8.074;2023-07-16T02:37:29;18.40;99.90
5560;DHT22;2803;47.916;8.074;2023-07-16T02:39:58;18.00;99.90
5560;DHT22;2803;47.916;8.074;2023-07-16T02:42:25;18.10;99.90
5560;DHT22;2803;47.916;8.074;2023-07-16T02:44:51;18.10;99.90
5560;DHT22;2803;47.916;8.074;2023-07-16T02:47:18;18.50;99.90
5560;DHT22;2803;47.916;8.074;2023-07-16T02:49:45;18.20;99.90
5560;DHT22;2803;47.916;8.074;2023-07-16T02:52:11;18.00;99.90
5560;DHT22;2803;47.916;8.074;2023-07-16T02:54:38;18.00;99.90
5560;DHT22;2803;47.916;8.074;2023-07-16T02:57:06;18.00;99.90
5560;DHT22;2803;47.916;8.074;2023-07-16T02:59:33;18.10;99.90
5560;DHT22;2803;47.916;8.074;2023-07-16T03:01:59;18.50;99.90
5560;DHT22;2803;47.916;8.074;2023-07-16T03:04:26;18.40;99.90
5560;DHT22;2803;47.916;8.074;2023-07-16T03:06:53;18.50;99.90
5560;DHT22;2803;47.916;8.074;2023-07-16T03:09:19;18.40;99.90
5560;DHT22;2803;47.916;8.074;2023-07-16T03:11:46;18.40;99.90
5560;DHT22;2803;47.916;8.074;2023-07-16T03:16:41;18.60;99.90
5560;DHT22;2803;47.916;8.074;2023-07-16T03:19:07;18.40;99.90
5560;DHT22;2803;47.916;8.074;2023-07-16T03:21:34;18.50;99.90
5560;DHT22;2803;47.916;8.074;2023-07-16T03:24:01;18.30;99.90
5560;DHT22;2803;47.916;8.074;2023-07-16T03:26:27;18.40;99.90
5560;DHT22;2803;47.916;8.074;2023-07-16T03:28:54;18.50;99.90
5560;DHT22;2803;47.916;8.074;2023-07-16T03:31:22;18.20;99.90
5560;DHT22;2803;47.916;8.074;2023-07-16T03:33:49;18.40;99.90
5560;DHT22;2803;47.916;8.074;2023-07-16T03:36:16;17.90;99.90
5560;DHT22;2803;47.916;8.074;2023-07-16T03:38:43;18.10;99.90
5560;DHT22;2803;47.916;8.074;2023-07-16T03:41:10;18.10;99.90
5560;DHT22;2803;47.916;8.074;2023-07-16T03:43:36;18.20;99.90
5560;DHT22;2803;47.916;8.074;2023-07-16T03:46:03;18.40;99.90
5560;DHT22;2803;47.916;8.074;2023-07-16T03:48:34;18.60;99.90
5560;DHT22;2803;47.916;8.074;2023-07-16T03:51:00;18.40;99.90
5560;DHT22;2803;47.916;8.074;2023-07-16T03:53:27;18.50;99.90
5560;DHT22;2803;47.916;8.074;2023-07-16T03:55:54;18.60;99.90
5560;DHT22;2803;47.916;8.074;2023-07-16T03:58:20;18.80;99.90
5560;DHT22;2803;47.916;8.074;2023-07-16T04:00:48;18.80;99.90
5560;DHT22;2803;47.916;8.074;2023-07-16T04:03:15;18.90;99.90
5560;DHT22;2803;47.916;8.074;2023-07-16T04:05:42;18.80;99.90
5560;DHT22;2803;47.916;8.074;2023-07-16T04:08:09;18.80;99.90
5560;DHT22;2803;47.916;8.074;2023-07-16T04:10:36;18.60;99.90
5560;DHT22;2803;47.916;8.074;2023-07-16T04:13:02;18.70;99.90
5560;DHT22;2803;47.916;8.074;2023-07-16T04:15:29;18.80;99.90
5560;DHT22;2803;47.916;8.074;2023-07-16T04:17:56;18.80;99.90
5560;DHT22;2803;47.916;8.074;2023-07-16T04:20:22;18.80;99.90
5560;DHT22;2803;47.916;8.074;2023-07-16T04:22:51;19.00;99.90
5560;DHT22;2803;47.916;8.074;2023-07-16T04:25:18;18.90;99.90
5560;DHT22;2803;47.916;8.074;2023-07-16T04:27:45;18.90;99.90
5560;DHT22;2803;47.916;8.074;2023-07-16T04:30:12;18.50;99.90
5560;DHT22;2803;47.916;8.074;2023-07-16T04:32:38;18.50;99.90
5560;DHT22;2803;47.916;8.074;2023-07-16T04:35:05;18.60;99.90
5560;DHT22;2803;47.916;8.074;2023-07-16T04:37:32;18.70;99.90
5560;DHT22;2803;47.916;8.074;2023-07-16T04:40:00;18.80;99.90
5560;DHT22;2803;47.916;8.074;2023-07-16T04:42:27;18.90;99.90
5560;DHT22;2803;47.916;8.074;2023-07-16T04:44:54;18.90;99.90
5560;DHT22;2803;47.916;8.074;2023-07-16T04:47:20;18.80;99.90
5560;DHT22;2803;47.916;8.074;2023-07-16T04:49:47;18.80;99.90
5560;DHT22;2803;47.916;8.074;2023-07-16T04:52:14;18.80;99.90
5560;DHT22;2803;47.916;8.074;2023-07-16T04:54:40;19.00;99.90
5560;DHT22;2803;47.916;8.074;2023-07-16T04:57:08;19.00;99.90
5560;DHT22;2803;47.916;8.074;2023-07-16T04:59:35;19.10;99.90
5560;DHT22;2803;47.916;8.074;2023-07-16T05:02:04;19.20;99.90
5560;DHT22;2803;47.916;8.074;2023-07-16T05:04:31;19.20;99.90
5560;DHT22;2803;47.916;8.074;2023-07-16T05:06:58;19.30;99.90
5560;DHT22;2803;47.916;8.074;2023-07-16T05:09:24;19.00;99.90
5560;DHT22;2803;47.916;8.074;2023-07-16T05:11:51;19.10;99.90
5560;DHT22;2803;47.916;8.074;2023-07-16T05:14:19;19.20;99.90
5560;DHT22;2803;47.916;8.074;2023-07-16T05:16:46;18.90;99.90
5560;DHT22;2803;47.916;8.074;2023-07-16T05:19:13;18.90;99.90
5560;DHT22;2803;47.916;8.074;2023-07-16T05:21:39;19.00;99.90
5560;DHT22;2803;47.916;8.074;2023-07-16T05:24:06;19.00;99.90
5560;DHT22;2803;47.916;8.074;2023-07-16T05:26:33;19.00;99.90
5560;DHT22;2803;47.916;8.074;2023-07-16T05:28:59;19.20;99.90
5560;DHT22;2803;47.916;8.074;2023-07-16T05:31:27;19.30;99.90
5560;DHT22;2803;47.916;8.074;2023-07-16T05:33:54;19.20;99.90
5560;DHT22;2803;47.916;8.074;2023-07-16T05:36:20;19.20;99.90
5560;DHT22;2803;47.916;8.074;2023-07-16T05:38:47;19.30;99.90
5560;DHT22;2803;47.916;8.074;2023-07-16T05:41:14;19.40;99.90
5560;DHT22;2803;47.916;8.074;2023-07-16T05:43:40;19.10;99.90
5560;DHT22;2803;47.916;8.074;2023-07-16T05:46:07;18.70;99.90
5560;DHT22;2803;47.916;8.074;2023-07-16T05:48:35;18.80;99.90
5560;DHT22;2803;47.916;8.074;2023-07-16T05:51:02;18.90;99.90
5560;DHT22;2803;47.916;8.074;2023-07-16T05:53:28;19.30;99.90
5560;DHT22;2803;47.916;8.074;2023-07-16T05:55:55;19.50;99.90
5560;DHT22;2803;47.916;8.074;2023-07-16T05:58:22;19.60;99.90
5560;DHT22;2803;47.916;8.074;2023-07-16T06:00:48;19.70;99.90
5560;DHT22;2803;47.916;8.074;2023-07-16T06:03:15;19.70;99.90
5560;DHT22;2803;47.916;8.074;2023-07-16T06:05:45;19.70;99.90
5560;DHT22;2803;47.916;8.074;2023-07-16T06:08:12;19.50;99.90
5560;DHT22;2803;47.916;8.074;2023-07-16T06:10:38;19.80;99.90
5560;DHT22;2803;47.916;8.074;2023-07-16T06:13:05;19.50;99.90
5560;DHT22;2803;47.916;8.074;2023-07-16T06:15:32;19.70;99.90
5560;DHT22;2803;47.916;8.074;2023-07-16T06:17:58;19.60;99.90
5560;DHT22;2803;47.916;8.074;2023-07-16T06:20:25;19.70;99.90
5560;DHT22;2803;47.916;8.074;2023-07-16T06:22:53;19.80;99.90
5560;DHT22;2803;47.916;8.074;2023-07-16T06:25:20;20.00;99.90
5560;DHT22;2803;47.916;8.074;2023-07-16T06:27:47;20.10;99.90
5560;DHT22;2803;47.916;8.074;2023-07-16T06:30:14;20.20;99.90
5560;DHT22;2803;47.916;8.074;2023-07-16T06:32:40;20.30;99.90
5560;DHT22;2803;47.916;8.074;2023-07-16T06:35:08;20.40;99.90
5560;DHT22;2803;47.916;8.074;2023-07-16T06:37:35;20.50;99.90
5560;DHT22;2803;47.916;8.074;2023-07-16T06:40:03;20.50;99.90
5560;DHT22;2803;47.916;8.074;2023-07-16T06:42:31;20.60;99.90
5560;DHT22;2803;47.916;8.074;2023-07-16T06:44:57;20.90;99.90
5560;DHT22;2803;47.916;8.074;2023-07-16T06:47:24;20.60;99.90
5560;DHT22;2803;47.916;8.074;2023-07-16T06:49:50;20.80;99.90
5560;DHT22;2803;47.916;8.074;2023-07-16T06:52:19;20.40;99.90
5560;DHT22;2803;47.916;8.074;2023-07-16T06:54:45;20.80;99.90
5560;DHT22;2803;47.916;8.074;2023-07-16T06:57:14;21.10;99.90
5560;DHT22;2803;47.916;8.074;2023-07-16T06:59:40;21.20;99.90
5560;DHT22;2803;47.916;8.074;2023-07-16T07:02:07;21.20;99.90
5560;DHT22;2803;47.916;8.074;2023-07-16T07:04:34;21.50;99.90
5560;DHT22;2803;47.916;8.074;2023-07-16T07:07:00;21.80;99.90
5560;DHT22;2803;47.916;8.074;2023-07-16T07:09:27;22.00;99.90
5560;DHT22;2803;47.916;8.074;2023-07-16T07:11:54;21.90;99.90
5560;DHT22;2803;47.916;8.074;2023-07-16T07:14:22;21.80;99.90
5560;DHT22;2803;47.916;8.074;2023-07-16T07:16:49;21.30;99.90
5560;DHT22;2803;47.916;8.074;2023-07-16T07:19:15;20.70;99.90
5560;DHT22;2803;47.916;8.074;2023-07-16T07:21:42;21.00;99.90
5560;DHT22;2803;47.916;8.074;2023-07-16T07:24:09;20.80;99.90
5560;DHT22;2803;47.916;8.074;2023-07-16T07:26:35;21.20;99.90
5560;DHT22;2803;47.916;8.074;2023-07-16T07:29:02;21.10;99.90
5560;DHT22;2803;47.916;8.074;2023-07-16T07:31:30;21.10;99.90
5560;DHT22;2803;47.916;8.074;2023-07-16T07:33:57;20.90;99.90
5560;DHT22;2803;47.916;8.074;2023-07-16T07:36:25;21.10;99.90
5560;DHT22;2803;47.916;8.074;2023-07-16T07:38:51;20.90;99.90
5560;DHT22;2803;47.916;8.074;2023-07-16T07:41:18;20.80;99.90
5560;DHT22;2803;47.916;8.074;2023-07-16T07:43:44;21.00;99.90
5560;DHT22;2803;47.916;8.074;2023-07-16T07:46:11;21.00;99.90
5560;DHT22;2803;47.916;8.074;2023-07-16T07:48:39;20.50;99.90
5560;DHT22;2803;47.916;8.074;2023-07-16T07:51:06;20.90;99.90
5560;DHT22;2803;47.916;8.074;2023-07-16T07:53:33;20.80;99.90
5560;DHT22;2803;47.916;8.074;2023-07-16T07:56:00;21.00;99.90
5560;DHT22;2803;47.916;8.074;2023-07-16T07:58:26;21.20;99.90
5560;DHT22;2803;47.916;8.074;2023-07-16T08:00:53;21.40;99.90
5560;DHT22;2803;47.916;8.074;2023-07-16T08:03:20;21.20;99.90
5560;DHT22;2803;47.916;8.074;2023-07-16T08:05:49;20.50;99.90
5560;DHT22;2803;47.916;8.074;2023-07-16T08:08:16;19.90;99.90
5560;DHT22;2803;47.916;8.074;2023-07-16T08:10:43;19.90;99.90
5560;DHT22;2803;47.916;8.074;2023-07-16T08:13:11;19.70;99.90
5560;DHT22;2803;47.916;8.074;2023-07-16T08:15:38;20.10;99.90
5560;DHT22;2803;47.916;8.074;2023-07-16T08:18:04;20.60;99.90
5560;DHT22;2803;47.916;8.074;2023-07-16T08:20:32;20.40;99.90
5560;DHT22;2803;47.916;8.074;2023-07-16T08:23:00;20.30;99.90
5560;DHT22;2803;47.916;8.074;2023-07-16T08:25:26;20.10;99.90
5560;DHT22;2803;47.916;8.074;2023-07-16T08:27:53;20.30;99.90
5560;DHT22;2803;47.916;8.074;2023-07-16T08:30:20;20.10;99.90
5560;DHT22;2803;47.916;8.074;2023-07-16T08:32:47;19.90;99.90
5560;DHT22;2803;47.916;8.074;2023-07-16T08:35:15;19.80;99.90
5560;DHT22;2803;47.916;8.074;2023-07-16T08:37:42;20.20;99.90
5560;DHT22;2803;47.916;8.074;2023-07-16T08:40:11;20.40;99.90
5560;DHT22;2803;47.916;8.074;2023-07-16T08:42:38;20.60;99.90
5560;DHT22;2803;47.916;8.074;2023-07-16T08:45:06;21.00;99.90
5560;DHT22;2803;47.916;8.074;2023-07-16T08:47:34;21.30;99.90
5560;DHT22;2803;47.916;8.074;2023-07-16T08:50:02;21.10;99.90
5560;DHT22;2803;47.916;8.074;2023-07-16T08:52:29;21.20;99.90
5560;DHT22;2803;47.916;8.074;2023-07-16T08:54:56;21.00;99.90
5560;DHT22;2803;47.916;8.074;2023-07-16T08:57:26;20.60;99.90
5560;DHT22;2803;47.916;8.074;2023-07-16T08:59:54;20.70;99.90
5560;DHT22;2803;47.916;8.074;2023-07-16T09:02:23;20.60;99.90
5560;DHT22;2803;47.916;8.074;2023-07-16T09:04:50;20.40;99.90
5560;DHT22;2803;47.916;8.074;2023-07-16T09:07:18;20.60;99.90
5560;DHT22;2803;47.916;8.074;2023-07-16T09:09:55;21.00;99.90
5560;DHT22;2803;47.916;8.074;2023-07-16T09:12:27;21.40;99.90
5560;DHT22;2803;47.916;8.074;2023-07-16T09:14:55;20.70;99.90
5560;DHT22;2803;47.916;8.074;2023-07-16T09:17:22;20.70;99.90
5560;DHT22;2803;47.916;8.074;2023-07-16T09:19:50;20.80;99.90
5560;DHT22;2803;47.916;8.074;2023-07-16T09:22:17;21.10;99.90
5560;DHT22;2803;47.916;8.074;2023-07-16T09:24:45;21.40;99.90
5560;DHT22;2803;47.916;8.074;2023-07-16T09:27:12;21.80;99.90
5560;DHT22;2803;47.916;8.074;2023-07-16T09:29:40;22.10;99.90
5560;DHT22;2803;47.916;8.074;2023-07-16T09:32:07;22.20;99.90
5560;DHT22;2803;47.916;8.074;2023-07-16T09:34:34;22.50;99.90
5560;DHT22;2803;47.916;8.074;2023-07-16T09:37:01;22.90;99.90
5560;DHT22;2803;47.916;8.074;2023-07-16T09:39:28;23.00;99.90
5560;DHT22;2803;47.916;8.074;2023-07-16T09:41:55;22.40;99.90
5560;DHT22;2803;47.916;8.074;2023-07-16T09:44:22;22.60;99.90
5560;DHT22;2803;47.916;8.074;2023-07-16T09:46:50;22.90;99.90
5560;DHT22;2803;47.916;8.074;2023-07-16T09:49:17;23.20;99.90
5560;DHT22;2803;47.916;8.074;2023-07-16T09:51:45;23.00;99.90
5560;DHT22;2803;47.916;8.074;2023-07-16T09:54:13;22.80;99.90
5560;DHT22;2803;47.916;8.074;2023-07-16T09:56:43;23.40;99.90
5560;DHT22;2803;47.916;8.074;2023-07-16T09:59:13;22.80;99.90
5560;DHT22;2803;47.916;8.074;2023-07-16T10:01:40;22.60;99.90
5560;DHT22;2803;47.916;8.074;2023-07-16T10:04:13;22.80;99.90
5560;DHT22;2803;47.916;8.074;2023-07-16T10:06:57;22.50;99.90
5560;DHT22;2803;47.916;8.074;2023-07-16T10:09:39;22.50;99.90
5560;DHT22;2803;47.916;8.074;2023-07-16T10:12:21;22.40;99.90
5560;DHT22;2803;47.916;8.074;2023-07-16T10:14:50;22.50;99.90
5560;DHT22;2803;47.916;8.074;2023-07-16T10:17:18;22.50;99.90
5560;DHT22;2803;47.916;8.074;2023-07-16T10:19:48;22.90;99.90
5560;DHT22;2803;47.916;8.074;2023-07-16T10:22:17;22.90;99.90
5560;DHT22;2803;47.916;8.074;2023-07-16T10:24:43;23.20;99.90
5560;DHT22;2803;47.916;8.074;2023-07-16T10:27:13;23.20;99.90
5560;DHT22;2803;47.916;8.074;2023-07-16T10:29:40;23.90;99.90
5560;DHT22;2803;47.916;8.074;2023-07-16T10:32:07;23.60;99.90
5560;DHT22;2803;47.916;8.074;2023-07-16T10:34:35;23.80;99.90
5560;DHT22;2803;47.916;8.074;2023-07-16T10:37:03;23.30;99.90
5560;DHT22;2803;47.916;8.074;2023-07-16T10:39:30;23.00;99.90
5560;DHT22;2803;47.916;8.074;2023-07-16T10:41:57;23.40;99.90
5560;DHT22;2803;47.916;8.074;2023-07-16T10:44:24;23.30;99.90
5560;DHT22;2803;47.916;8.074;2023-07-16T10:46:50;22.70;99.90
5560;DHT22;2803;47.916;8.074;2023-07-16T10:49:26;22.80;99.90
5560;DHT22;2803;47.916;8.074;2023-07-16T10:51:53;23.20;99.90
5560;DHT22;2803;47.916;8.074;2023-07-16T10:54:21;23.50;99.90
5560;DHT22;2803;47.916;8.074;2023-07-16T10:56:50;24.10;99.90
5560;DHT22;2803;47.916;8.074;2023-07-16T10:59:17;23.60;99.90
5560;DHT22;2803;47.916;8.074;2023-07-16T11:01:44;24.00;99.90
5560;DHT22;2803;47.916;8.074;2023-07-16T11:04:11;24.30;99.90
5560;DHT22;2803;47.916;8.074;2023-07-16T11:06:38;24.80;99.90
5560;DHT22;2803;47.916;8.074;2023-07-16T11:09:06;25.00;99.90
5560;DHT22;2803;47.916;8.074;2023-07-16T11:11:34;24.70;99.90
5560;DHT22;2803;47.916;8.074;2023-07-16T11:14:04;24.70;99.90
5560;DHT22;2803;47.916;8.074;2023-07-16T11:16:33;24.80;99.90
5560;DHT22;2803;47.916;8.074;2023-07-16T11:19:02;25.00;99.90
5560;DHT22;2803;47.916;8.074;2023-07-16T11:21:29;25.00;99.90
5560;DHT22;2803;47.916;8.074;2023-07-16T11:23:55;24.80;99.90
5560;DHT22;2803;47.916;8.074;2023-07-16T11:26:22;25.00;99.90
5560;DHT22;2803;47.916;8.074;2023-07-16T11:28:51;25.80;99.90
5560;DHT22;2803;47.916;8.074;2023-07-16T11:31:17;26.10;99.90
5560;DHT22;2803;47.916;8.074;2023-07-16T11:33:44;26.90;99.90
5560;DHT22;2803;47.916;8.074;2023-07-16T11:36:12;26.60;99.90
5560;DHT22;2803;47.916;8.074;2023-07-16T11:38:39;26.50;99.90
5560;DHT22;2803;47.916;8.074;2023-07-16T11:41:05;26.50;99.90
5560;DHT22;2803;47.916;8.074;2023-07-16T11:43:34;26.70;99.90
5560;DHT22;2803;47.916;8.074;2023-07-16T11:46:16;26.40;99.90
5560;DHT22;2803;47.916;8.074;2023-07-16T11:48:43;26.70;99.90
5560;DHT22;2803;47.916;8.074;2023-07-16T11:51:10;26.90;99.90
5560;DHT22;2803;47.916;8.074;2023-07-16T11:53:37;27.20;99.90
5560;DHT22;2803;47.916;8.074;2023-07-16T11:56:04;26.90;99.90
5560;DHT22;2803;47.916;8.074;2023-07-16T11:58:30;26.90;99.90
5560;DHT22;2803;47.916;8.074;2023-07-16T12:00:57;26.50;99.90
5560;DHT22;2803;47.916;8.074;2023-07-16T12:03:25;26.40;99.90
5560;DHT22;2803;47.916;8.074;2023-07-16T12:05:51;27.10;99.90
5560;DHT22;2803;47.916;8.074;2023-07-16T12:08:18;26.90;99.90
5560;DHT22;2803;47.916;8.074;2023-07-16T12:10:44;26.70;99.90
5560;DHT22;2803;47.916;8.074;2023-07-16T12:13:11;27.10;99.90
5560;DHT22;2803;47.916;8.074;2023-07-16T12:15:38;27.50;99.90
5560;DHT22;2803;47.916;8.074;2023-07-16T12:18:04;26.90;99.90
5560;DHT22;2803;47.916;8.074;2023-07-16T12:20:34;26.80;99.90
5560;DHT22;2803;47.916;8.074;2023-07-16T12:23:01;27.20;99.90
5560;DHT22;2803;47.916;8.074;2023-07-16T12:25:28;27.40;99.90
5560;DHT22;2803;47.916;8.074;2023-07-16T12:27:55;28.00;99.90
5560;DHT22;2803;47.916;8.074;2023-07-16T12:30:23;28.00;99.90
5560;DHT22;2803;47.916;8.074;2023-07-16T12:32:50;28.70;99.90
5560;DHT22;2803;47.916;8.074;2023-07-16T12:35:16;28.60;99.90
5560;DHT22;2803;47.916;8.074;2023-07-16T12:37:44;28.40;99.90
5560;DHT22;2803;47.916;8.074;2023-07-16T12:40:11;28.70;99.90
5560;DHT22;2803;47.916;8.074;2023-07-16T12:42:38;29.10;99.90
5560;DHT22;2803;47.916;8.074;2023-07-16T12:45:05;28.60;99.90
5560;DHT22;2803;47.916;8.074;2023-07-16T12:47:32;29.20;99.90
5560;DHT22;2803;47.916;8.074;2023-07-16T12:49:59;28.80;99.90
5560;DHT22;2803;47.916;8.074;2023-07-16T12:52:26;29.10;99.90
5560;DHT22;2803;47.916;8.074;2023-07-16T12:54:53;29.00;99.90
5560;DHT22;2803;47.916;8.074;2023-07-16T12:57:20;28.90;99.90
5560;DHT22;2803;47.916;8.074;2023-07-16T12:59:47;28.70;99.90
5560;DHT22;2803;47.916;8.074;2023-07-16T13:02:13;29.20;99.90
5560;DHT22;2803;47.916;8.074;2023-07-16T13:04:40;29.10;99.90
5560;DHT22;2803;47.916;8.074;2023-07-16T13:07:06;29.20;99.90
5560;DHT22;2803;47.916;8.074;2023-07-16T13:09:34;28.40;99.90
5560;DHT22;2803;47.916;8.074;2023-07-16T13:12:02;27.40;99.90
5560;DHT22;2803;47.916;8.074;2023-07-16T13:14:28;26.80;99.90
5560;DHT22;2803;47.916;8.074;2023-07-16T13:16:55;26.70;99.90
5560;DHT22;2803;47.916;8.074;2023-07-16T13:19:21;26.90;99.90
5560;DHT22;2803;47.916;8.074;2023-07-16T13:21:48;26.00;99.90
5560;DHT22;2803;47.916;8.074;2023-07-16T13:24:15;26.10;99.90
5560;DHT22;2803;47.916;8.074;2023-07-16T13:26:41;26.40;99.90
5560;DHT22;2803;47.916;8.074;2023-07-16T13:29:09;25.90;99.90
5560;DHT22;2803;47.916;8.074;2023-07-16T13:31:36;25.70;99.90
5560;DHT22;2803;47.916;8.074;2023-07-16T13:34:02;25.90;99.90
5560;DHT22;2803;47.916;8.074;2023-07-16T13:36:29;26.40;99.90
5560;DHT22;2803;47.916;8.074;2023-07-16T13:38:55;26.60;99.90
5560;DHT22;2803;47.916;8.074;2023-07-16T13:41:22;26.90;99.90
5560;DHT22;2803;47.916;8.074;2023-07-16T13:43:49;27.50;99.90
5560;DHT22;2803;47.916;8.074;2023-07-16T13:46:17;27.50;99.90
5560;DHT22;2803;47.916;8.074;2023-07-16T13:48:43;27.50;99.90
5560;DHT22;2803;47.916;8.074;2023-07-16T13:51:10;27.60;99.90
5560;DHT22;2803;47.916;8.074;2023-07-16T13:53:36;27.60;98.80
5560;DHT22;2803;47.916;8.074;2023-07-16T13:56:03;27.80;99.10
5560;DHT22;2803;47.916;8.074;2023-07-16T13:58:30;28.10;98.90
5560;DHT22;2803;47.916;8.074;2023-07-16T14:00:56;28.50;98.30
5560;DHT22;2803;47.916;8.074;2023-07-16T14:03:24;29.20;96.70
5560;DHT22;2803;47.916;8.074;2023-07-16T14:05:51;30.00;95.50
5560;DHT22;2803;47.916;8.074;2023-07-16T14:08:18;30.10;95.00
5560;DHT22;2803;47.916;8.074;2023-07-16T14:10:44;29.70;94.00
5560;DHT22;2803;47.916;8.074;2023-07-16T14:13:11;30.40;93.10
5560;DHT22;2803;47.916;8.074;2023-07-16T14:15:41;30.00;92.50
5560;DHT22;2803;47.916;8.074;2023-07-16T14:18:08;29.80;92.70
5560;DHT22;2803;47.916;8.074;2023-07-16T14:20:36;30.00;92.40
5560;DHT22;2803;47.916;8.074;2023-07-16T14:23:03;30.10;95.20
5560;DHT22;2803;47.916;8.074;2023-07-16T14:25:31;30.70;93.20
5560;DHT22;2803;47.916;8.074;2023-07-16T14:27:58;30.50;91.70
5560;DHT22;2803;47.916;8.074;2023-07-16T14:30:24;31.00;93.40
5560;DHT22;2803;47.916;8.074;2023-07-16T14:32:51;31.40;91.60
5560;DHT22;2803;47.916;8.074;2023-07-16T14:35:17;30.80;92.10
5560;DHT22;2803;47.916;8.074;2023-07-16T14:37:45;30.20;91.30
5560;DHT22;2803;47.916;8.074;2023-07-16T14:40:12;29.30;93.00
5560;DHT22;2803;47.916;8.074;2023-07-16T14:42:39;28.90;96.00
5560;DHT22;2803;47.916;8.074;2023-07-16T14:45:07;28.20;95.10
5560;DHT22;2803;47.916;8.074;2023-07-16T14:47:34;28.20;95.20
5560;DHT22;2803;47.916;8.074;2023-07-16T14:50:00;27.70;95.30
5560;DHT22;2803;47.916;8.074;2023-07-16T14:52:27;27.60;95.30
5560;DHT22;2803;47.916;8.074;2023-07-16T14:54:55;27.50;97.10
5560;DHT22;2803;47.916;8.074;2023-07-16T14:57:22;26.90;96.60
5560;DHT22;2803;47.916;8.074;2023-07-16T14:59:48;27.10;97.40
5560;DHT22;2803;47.916;8.074;2023-07-16T15:02:15;26.90;96.70
5560;DHT22;2803;47.916;8.074;2023-07-16T15:04:42;26.60;97.80
5560;DHT22;2803;47.916;8.074;2023-07-16T15:07:08;26.60;99.00
5560;DHT22;2803;47.916;8.074;2023-07-16T15:09:35;27.00;98.70
5560;DHT22;2803;47.916;8.074;2023-07-16T15:12:04;26.70;98.00
5560;DHT22;2803;47.916;8.074;2023-07-16T15:14:31;26.50;97.90
5560;DHT22;2803;47.916;8.074;2023-07-16T15:16:58;26.60;97.20
5560;DHT22;2803;47.916;8.074;2023-07-16T15:19:25;26.40;97.60
5560;DHT22;2803;47.916;8.074;2023-07-16T15:21:51;26.90;98.60
5560;DHT22;2803;47.916;8.074;2023-07-16T15:24:18;27.20;95.90
5560;DHT22;2803;47.916;8.074;2023-07-16T15:26:44;27.00;96.50
5560;DHT22;2803;47.916;8.074;2023-07-16T15:29:12;27.20;95.50
5560;DHT22;2803;47.916;8.074;2023-07-16T15:31:39;27.30;96.00
5560;DHT22;2803;47.916;8.074;2023-07-16T15:34:05;27.10;95.90
5560;DHT22;2803;47.916;8.074;2023-07-16T15:36:32;27.10;96.10
5560;DHT22;2803;47.916;8.074;2023-07-16T15:38:58;26.50;96.30
5560;DHT22;2803;47.916;8.074;2023-07-16T15:41:26;26.40;97.00
5560;DHT22;2803;47.916;8.074;2023-07-16T15:43:54;26.50;96.70
5560;DHT22;2803;47.916;8.074;2023-07-16T15:46:22;26.60;96.20
5560;DHT22;2803;47.916;8.074;2023-07-16T15:48:48;26.10;96.80
5560;DHT22;2803;47.916;8.074;2023-07-16T15:51:15;26.60;96.80
5560;DHT22;2803;47.916;8.074;2023-07-16T15:53:41;26.40;97.60
5560;DHT22;2803;47.916;8.074;2023-07-16T15:56:09;26.50;96.40
5560;DHT22;2803;47.916;8.074;2023-07-16T15:58:36;26.30;96.90
5560;DHT22;2803;47.916;8.074;2023-07-16T16:01:03;26.60;96.70
5560;DHT22;2803;47.916;8.074;2023-07-16T16:03:32;26.30;96.30
5560;DHT22;2803;47.916;8.074;2023-07-16T16:05:59;26.50;96.90